createdAt,value
2016-03-03T00:01:12.081Z,99.99
2016-03-03T00:01:55.975Z,99.99
2016-03-03T00:03:05.508Z,99.99
2016-03-03T00:04:31.186Z,99.99
2016-03-03T00:06:52.660Z,99.99
2016-03-03T00:07:46.397Z,99.99
2016-03-03T00:08:59.134Z,99.99
2016-03-03T00:09:46.418Z,99.99
2016-03-03T00:11:12.093Z,99.99
2016-03-03T00:11:46.454Z,99.99
2016-03-03T00:13:17.757Z,99.99
2016-03-03T00:13:50.976Z,99.99
2016-03-03T00:17:06.218Z,99.99
2016-03-03T00:18:06.268Z,99.85
2016-03-03T00:19:21.461Z,99.99
2016-03-03T00:20:21.479Z,99.85
2016-03-03T00:22:38.078Z,99.99
2016-03-03T00:23:38.081Z,99.99
2016-03-03T00:24:38.724Z,99.99
2016-03-03T00:25:50.853Z,99.99
2016-03-03T00:26:38.730Z,99.99
2016-03-03T00:27:57.358Z,99.99
2016-03-03T00:28:38.188Z,99.99
2016-03-03T00:30:09.456Z,99.99
2016-03-03T00:30:47.694Z,99.99
2016-03-03T00:33:03.511Z,99.99
2016-03-03T00:34:03.498Z,99.99
2016-03-03T00:35:29.191Z,99.99
2016-03-03T00:36:16.085Z,99.99
2016-03-03T00:38:48.058Z,99.99
2016-03-03T00:41:04.657Z,99.99
2016-03-03T00:42:04.676Z,99.99
2016-03-03T00:44:14.685Z,99.99
2016-03-03T00:45:33.921Z,99.99
2016-03-03T00:46:14.704Z,99.99
2016-03-03T00:47:46.037Z,99.99
2016-03-03T00:48:29.992Z,99.99
2016-03-03T00:49:29.931Z,99.99
2016-03-03T00:50:29.934Z,99.99
2016-03-03T00:51:29.938Z,99.99
2016-03-03T00:52:36.268Z,99.99
2016-03-03T00:53:29.973Z,99.99
2016-03-03T00:54:49.164Z,99.99
2016-03-03T00:55:45.839Z,99.99
2016-03-03T00:56:58.795Z,99.99
2016-03-03T00:57:55.610Z,99.43
2016-03-03T00:59:01.894Z,99.33
2016-03-03T01:00:26.961Z,99.52
2016-03-03T01:01:10.821Z,99.71
2016-03-03T01:02:30.045Z,99.71
2016-03-03T01:03:10.858Z,99.33
2016-03-03T01:04:36.567Z,99.15
2016-03-03T01:05:20.428Z,99.99
2016-03-03T01:06:39.634Z,99.99
2016-03-03T01:07:23.480Z,99.99
2016-03-03T01:08:38.670Z,99.99
2016-03-03T01:09:38.767Z,99.99
2016-03-03T01:10:38.707Z,99.99
2016-03-03T01:11:38.772Z,99.99
2016-03-03T01:12:45.025Z,99.99
2016-03-03T01:13:39.341Z,99.99
2016-03-03T01:14:57.952Z,99.99
2016-03-03T01:15:40.190Z,99.99
2016-03-03T01:17:53.945Z,99.33
2016-03-03T01:18:53.979Z,99.71
2016-03-03T01:20:06.748Z,99.43
2016-03-03T01:20:54.000Z,99.24
2016-03-03T01:22:13.221Z,99.15
2016-03-03T01:23:09.818Z,99.33
2016-03-03T01:24:22.776Z,99.15
2016-03-03T01:25:16.307Z,99.33
2016-03-03T01:26:00.169Z,99.43
2016-03-03T01:30:06.509Z,99.33
2016-03-03T01:32:49.969Z,99.99
2016-03-03T01:33:18.706Z,99.99
2016-03-03T01:34:18.677Z,99.71
2016-03-03T01:35:31.446Z,98.96
2016-03-03T01:36:18.696Z,99.15
2016-03-03T01:37:18.730Z,98.58
2016-03-03T01:38:28.266Z,98.2
2016-03-03T01:39:28.301Z,98.1
2016-03-03T01:40:41.038Z,98.39
2016-03-03T01:41:59.618Z,98.39
2016-03-03T01:42:49.840Z,98.2
2016-03-03T01:43:43.593Z,98.48
2016-03-03T01:44:56.346Z,98.1
2016-03-03T01:45:49.879Z,97.53
2016-03-03T01:47:02.852Z,97.34
2016-03-03T01:47:43.635Z,97.34
2016-03-03T01:49:09.326Z,96.73
2016-03-03T01:49:56.406Z,95.97
2016-03-03T01:51:43.771Z,94.93
2016-03-03T01:52:43.899Z,94.46
2016-03-03T01:53:43.758Z,94.37
2016-03-03T01:54:43.745Z,94.56
2016-03-03T01:55:43.967Z,93.99
2016-03-03T01:56:56.703Z,93.61
2016-03-03T01:57:43.783Z,93.99
2016-03-03T01:59:03.005Z,93.61
2016-03-03T01:59:46.883Z,93.32
2016-03-03T02:01:12.558Z,92.66
2016-03-03T02:02:09.155Z,92.1
2016-03-03T02:02:56.422Z,92
2016-03-03T02:04:15.659Z,92.38
2016-03-03T02:05:27.758Z,91.91
2016-03-03T02:05:56.461Z,91.86
2016-03-03T02:08:24.424Z,90.91
2016-03-03T02:09:11.674Z,91.15
2016-03-03T02:10:12.394Z,90.81
2016-03-03T02:11:17.991Z,90.25
2016-03-03T02:12:24.560Z,90.25
2016-03-03T02:13:24.687Z,90.06
2016-03-03T02:14:11.749Z,89.87
2016-03-03T02:15:11.767Z,89.96
2016-03-03T02:16:30.976Z,89.11
2016-03-03T02:17:14.945Z,89.3
2016-03-03T02:18:14.869Z,89.58
2016-03-03T02:19:14.951Z,90.25
2016-03-03T02:20:40.581Z,90.34
2016-03-03T02:21:14.909Z,91.05
2016-03-03T02:22:14.911Z,91.24
2016-03-03T02:23:30.103Z,91.34
2016-03-03T02:24:30.107Z,91.53
2016-03-03T02:25:36.390Z,92
2016-03-03T02:26:30.143Z,91.81
2016-03-03T02:27:42.880Z,92
2016-03-03T02:28:42.883Z,92.38
2016-03-03T02:29:33.197Z,92.47
2016-03-03T02:30:30.185Z,92.38
2016-03-03T02:31:33.314Z,92.57
2016-03-03T02:32:36.331Z,93.13
2016-03-03T02:34:48.524Z,92.94
2016-03-03T02:35:48.511Z,92.85
2016-03-03T02:37:01.248Z,93.13
2016-03-03T02:37:49.126Z,92.85
2016-03-03T02:39:07.769Z,93.13
2016-03-03T02:39:48.553Z,92.94
2016-03-03T02:41:14.243Z,92.94
2016-03-03T02:41:49.183Z,92.94
2016-03-03T02:43:48.610Z,93.13
2016-03-03T02:44:49.223Z,93.51
2016-03-03T02:46:14.304Z,93.61
2016-03-03T02:46:50.166Z,94.18
2016-03-03T02:48:20.168Z,93.89
2016-03-03T02:48:48.671Z,93.99
2016-03-03T02:49:48.683Z,93.89
2016-03-03T02:50:49.295Z,93.99
2016-03-03T02:51:55.141Z,93.89
2016-03-03T02:52:48.675Z,93.89
2016-03-03T02:53:54.928Z,93.89
2016-03-03T02:55:21.405Z,93.7
2016-03-03T02:55:59.621Z,93.89
2016-03-03T02:56:59.602Z,94.08
2016-03-03T02:58:12.193Z,93.42
2016-03-03T02:58:59.628Z,93.32
2016-03-03T03:00:25.346Z,93.42
2016-03-03T03:01:29.019Z,93.7
2016-03-03T03:02:12.894Z,93.42
2016-03-03T03:03:12.926Z,93.04
2016-03-03T03:04:19.052Z,93.23
2016-03-03T03:05:41.696Z,92.85
2016-03-03T03:06:31.870Z,92.57
2016-03-03T03:07:44.809Z,92.66
2016-03-03T03:08:32.184Z,92.85
2016-03-03T03:09:51.330Z,92.47
2016-03-03T03:10:38.363Z,92.19
2016-03-03T03:11:25.644Z,92.47
2016-03-03T03:12:25.662Z,91.81
2016-03-03T03:13:25.681Z,92
2016-03-03T03:14:40.858Z,91.72
2016-03-03T03:15:40.891Z,92.19
2016-03-03T03:16:53.627Z,91.43
2016-03-03T03:17:40.911Z,91.34
2016-03-03T03:19:00.133Z,91.43
2016-03-03T03:19:47.291Z,91.24
2016-03-03T03:21:12.263Z,91.05
2016-03-03T03:22:56.191Z,90.3
2016-03-03T03:23:56.116Z,90.39
2016-03-03T03:24:56.244Z,90.11
2016-03-03T03:25:56.152Z,90.44
2016-03-03T03:26:56.186Z,89.87
2016-03-03T03:27:56.205Z,90.15
2016-03-03T03:28:56.208Z,89.2
2016-03-03T03:30:09.163Z,89.2
2016-03-03T03:30:57.634Z,89.11
2016-03-03T03:32:15.449Z,88.92
2016-03-03T03:32:59.296Z,89.2
2016-03-03T03:33:56.284Z,88.82
2016-03-03T03:35:02.551Z,88.82
2016-03-03T03:36:09.055Z,88.54
2016-03-03T03:36:56.323Z,88.64
2016-03-03T03:37:56.326Z,88.54
2016-03-03T03:39:09.062Z,88.35
2016-03-03T03:39:56.956Z,88.73
2016-03-03T03:41:09.098Z,88.82
2016-03-03T03:41:56.992Z,88.35
2016-03-03T03:43:12.386Z,88.26
2016-03-03T03:44:12.295Z,87.78
2016-03-03T03:45:18.579Z,88.17
2016-03-03T03:46:12.331Z,87.88
2016-03-03T03:47:13.756Z,87.59
2016-03-03T03:48:25.087Z,87.88
2016-03-03T03:49:15.418Z,87.98
2016-03-03T03:50:12.389Z,87.78
2016-03-03T03:51:25.126Z,87.59
2016-03-03T03:52:31.613Z,87.5
2016-03-03T03:53:31.631Z,87.59
2016-03-03T03:54:12.494Z,87.12
2016-03-03T03:55:12.465Z,87.12
2016-03-03T03:56:12.468Z,86.93
2016-03-03T03:57:13.907Z,87.31
2016-03-03T03:58:43.801Z,87.02
2016-03-03T03:59:22.085Z,87.21
2016-03-03T04:00:22.104Z,87.5
2016-03-03T04:01:34.841Z,87.21
2016-03-03T04:02:22.140Z,86.93
2016-03-03T04:03:41.362Z,87.31
2016-03-03T04:04:22.271Z,86.65
2016-03-03T04:05:22.179Z,86.93
2016-03-03T04:06:22.182Z,87.12
2016-03-03T04:07:22.215Z,87.5
2016-03-03T04:08:34.953Z,87.12
2016-03-03T04:09:22.237Z,86.65
2016-03-03T04:10:41.458Z,87.02
2016-03-03T04:11:22.259Z,87.21
2016-03-03T04:12:47.951Z,87.02
2016-03-03T04:13:57.485Z,87.31
2016-03-03T04:14:31.845Z,87.21
2016-03-03T04:17:12.681Z,87.21
2016-03-03T04:17:47.025Z,86.74
2016-03-03T04:20:02.409Z,87.12
2016-03-03T04:21:02.348Z,86.36
2016-03-03T04:22:02.372Z,86.98
2016-03-03T04:23:02.390Z,86.74
2016-03-03T04:24:15.142Z,86.69
2016-03-03T04:25:02.426Z,86.74
2016-03-03T04:26:27.913Z,86.79
2016-03-03T04:27:02.431Z,86.31
2016-03-03T04:28:15.216Z,85.93
2016-03-03T04:29:02.468Z,86.12
2016-03-03T04:30:02.503Z,86.41
2016-03-03T04:31:18.302Z,86.31
2016-03-03T04:32:43.367Z,86.22
2016-03-03T04:33:27.245Z,85.55
2016-03-03T04:34:46.607Z,85.55
2016-03-03T04:35:27.250Z,85.74
2016-03-03T04:36:58.693Z,85.74
2016-03-03T04:37:42.583Z,85.36
2016-03-03T04:38:42.571Z,85.17
2016-03-03T04:40:13.888Z,84.7
2016-03-03T04:40:52.110Z,84.7
2016-03-03T04:42:17.863Z,85.46
2016-03-03T04:43:01.850Z,85.36
2016-03-03T04:44:21.087Z,86.22
2016-03-03T04:45:08.168Z,86.69
2016-03-03T04:46:27.561Z,86.98
2016-03-03T04:47:37.142Z,86.98
2016-03-03T04:48:21.020Z,86.79
2016-03-03T04:49:40.226Z,87.45
2016-03-03T04:52:01.686Z,88.11
2016-03-03T04:52:55.455Z,87.83
2016-03-03T04:54:10.661Z,88.49
2016-03-03T04:55:10.631Z,88.87
2016-03-03T04:56:10.650Z,88.3
2016-03-03T04:57:26.497Z,88.21
2016-03-03T04:59:48.145Z,88.49
2016-03-03T05:00:48.367Z,88.3
2016-03-03T05:02:07.370Z,89.63
2016-03-03T05:02:54.450Z,88.78
2016-03-03T05:04:13.641Z,89.25
2016-03-03T05:06:41.568Z,89.53
2016-03-03T05:07:28.852Z,89.53
2016-03-03T05:08:48.076Z,90.01
2016-03-03T05:09:32.169Z,90.01
2016-03-03T05:10:32.172Z,90.2
2016-03-03T05:12:03.490Z,90.86
2016-03-03T05:12:42.506Z,91.14
2016-03-03T05:13:42.212Z,91.43
2016-03-03T05:14:42.386Z,91.33
2016-03-03T05:15:42.249Z,91.81
2016-03-03T05:17:01.581Z,91.9
2016-03-03T05:17:58.397Z,92.47
2016-03-03T05:19:04.837Z,92.76
2016-03-03T05:19:58.371Z,92.94
2016-03-03T05:21:16.952Z,92.94
2016-03-03T05:21:58.392Z,93.04
2016-03-03T05:22:45.658Z,93.04
2016-03-03T05:23:45.723Z,93.23
2016-03-03T05:24:45.726Z,92.94
2016-03-03T05:25:45.713Z,93.04
2016-03-03T05:26:45.731Z,93.51
2016-03-03T05:27:58.471Z,93.51
2016-03-03T05:28:45.753Z,94.08
2016-03-03T05:29:45.770Z,94.56
2016-03-03T05:30:45.789Z,93.99
2016-03-03T05:31:46.400Z,93.42
2016-03-03T05:32:45.810Z,93.7
2016-03-03T05:33:45.844Z,94.08
2016-03-03T05:34:45.846Z,94.27
2016-03-03T05:36:05.305Z,94.27
2016-03-03T05:36:46.492Z,94.74
2016-03-03T05:37:45.885Z,95.12
2016-03-03T05:38:45.919Z,94.65
2016-03-03T05:39:45.922Z,94.93
2016-03-03T05:40:45.941Z,94.37
2016-03-03T05:41:45.960Z,95.45
2016-03-03T05:42:45.962Z,95.17
2016-03-03T05:43:45.996Z,94.84
2016-03-03T05:44:46.013Z,95.36
2016-03-03T05:45:58.801Z,95.64
2016-03-03T05:46:46.019Z,95.17
2016-03-03T05:48:05.446Z,95.45
2016-03-03T05:48:46.056Z,95.93
2016-03-03T05:50:46.343Z,96.07
2016-03-03T05:51:46.174Z,96.26
2016-03-03T05:53:11.788Z,95.83
2016-03-03T05:53:55.713Z,95.74
2016-03-03T05:55:14.887Z,95.83
2016-03-03T05:56:55.970Z,96.26
2016-03-03T05:57:30.298Z,96.55
2016-03-03T05:59:27.289Z,96.59
2016-03-03T05:59:39.992Z,96.69
2016-03-03T06:00:39.901Z,96.59
2016-03-03T06:01:49.466Z,96.55
2016-03-03T06:04:30.927Z,96.55
2016-03-03T06:05:05.289Z,96.92
2016-03-03T06:06:38.010Z,96.55
2016-03-03T06:07:47.561Z,96.73
2016-03-03T06:08:41.094Z,97.02
2016-03-03T06:10:21.974Z,97.21
2016-03-03T06:10:56.305Z,96.69
2016-03-03T06:13:11.545Z,96.92
2016-03-03T06:14:11.532Z,97.21
2016-03-03T06:15:37.222Z,97.02
2016-03-03T06:16:46.787Z,96.55
2016-03-03T06:17:56.355Z,96.83
2016-03-03T06:18:30.684Z,96.83
2016-03-03T06:20:02.002Z,96.55
2016-03-03T06:20:45.924Z,96.92
2016-03-03T06:22:05.163Z,97.02
2016-03-03T06:22:49.054Z,96.64
2016-03-03T06:23:49.057Z,96.64
2016-03-03T06:24:49.059Z,97.02
2016-03-03T06:25:49.078Z,97.02
2016-03-03T06:27:08.379Z,97.21
2016-03-03T06:27:49.145Z,96.92
2016-03-03T06:29:14.807Z,96.83
2016-03-03T06:29:49.167Z,96.26
2016-03-03T06:31:20.469Z,97.11
2016-03-03T06:32:04.425Z,96.45
2016-03-03T06:33:23.708Z,97.02
2016-03-03T06:34:17.117Z,97.02
2016-03-03T06:35:30.105Z,96.73
2016-03-03T06:36:23.638Z,96.83
2016-03-03T06:37:38.829Z,97.11
2016-03-03T06:38:38.863Z,97.59
2016-03-03T06:40:54.087Z,97.4
2016-03-03T06:41:54.075Z,97.68
2016-03-03T06:42:54.092Z,97.49
2016-03-03T06:43:54.111Z,97.49
2016-03-03T06:45:06.879Z,97.4
2016-03-03T06:45:54.836Z,97.49
2016-03-03T06:47:19.841Z,97.3
2016-03-03T06:48:03.716Z,97.49
2016-03-03T06:49:22.975Z,97.49
2016-03-03T06:50:03.756Z,97.4
2016-03-03T06:51:03.773Z,97.49
2016-03-03T06:52:03.793Z,97.49
2016-03-03T06:53:03.811Z,96.92
2016-03-03T06:54:03.814Z,97.11
2016-03-03T06:55:03.832Z,97.21
2016-03-03T06:56:03.866Z,97.02
2016-03-03T06:57:16.621Z,96.45
2016-03-03T06:58:03.886Z,96.55
2016-03-03T06:59:23.111Z,96.64
2016-03-03T07:00:03.892Z,96.64
2016-03-03T07:01:29.633Z,96.64
2016-03-03T07:02:03.976Z,96.83
2016-03-03T07:05:55.377Z,97.49
2016-03-03T07:06:24.099Z,97.49
2016-03-03T07:09:05.011Z,97.49
2016-03-03T07:09:39.341Z,97.4
2016-03-03T07:11:54.535Z,97.3
2016-03-03T07:12:54.583Z,97.78
2016-03-03T07:15:04.699Z,97.11
2016-03-03T07:17:19.784Z,96.92
2016-03-03T07:18:19.803Z,96.92
2016-03-03T07:19:26.087Z,96.73
2016-03-03T07:20:19.839Z,96.83
2016-03-03T07:21:32.623Z,96.73
2016-03-03T07:22:19.860Z,97.02
2016-03-03T07:23:45.566Z,97.02
2016-03-03T07:24:29.429Z,97.11
2016-03-03T07:25:29.540Z,96.92
2016-03-03T07:27:00.777Z,96.83
2016-03-03T07:28:16.595Z,97.02
2016-03-03T07:30:32.444Z,96.83
2016-03-03T07:31:32.478Z,97.02
2016-03-03T07:32:45.200Z,96.73
2016-03-03T07:33:32.687Z,97.02
2016-03-03T07:34:51.690Z,96.07
2016-03-03T07:35:35.567Z,96.17
2016-03-03T07:36:35.429Z,96.83
2016-03-03T07:38:50.778Z,96.45
2016-03-03T07:39:50.891Z,96.45
2016-03-03T07:42:32.274Z,96.45
2016-03-03T07:43:06.633Z,96.73
2016-03-03T07:45:21.782Z,96.17
2016-03-03T07:46:21.799Z,95.5
2016-03-03T07:47:21.818Z,96.17
2016-03-03T07:48:21.837Z,96.07
2016-03-03T07:49:28.214Z,96.73
2016-03-03T07:50:21.857Z,96.45
2016-03-03T07:51:41.079Z,96.36
2016-03-03T07:52:21.894Z,96.07
2016-03-03T07:53:53.225Z,96.17
2016-03-03T07:54:31.446Z,95.79
2016-03-03T07:55:31.465Z,95.69
2016-03-03T07:56:31.467Z,95.88
2016-03-03T07:57:31.501Z,95.84
2016-03-03T07:58:31.504Z,95.22
2016-03-03T07:59:44.241Z,95.88
2016-03-03T08:00:31.525Z,95.22
2016-03-03T08:01:50.761Z,95.03
2016-03-03T08:02:31.561Z,95.41
2016-03-03T08:03:57.268Z,95.98
2016-03-03T08:04:41.192Z,95.79
2016-03-03T08:05:41.211Z,95.22
2016-03-03T08:07:12.525Z,95.6
2016-03-03T08:07:56.388Z,95.22
2016-03-03T08:08:56.438Z,94.74
2016-03-03T08:10:27.739Z,95.79
2016-03-03T08:11:11.630Z,95.41
2016-03-03T08:12:11.633Z,95.5
2016-03-03T08:13:44.372Z,95.22
2016-03-03T08:14:28.313Z,95.22
2016-03-03T08:15:28.299Z,95.22
2016-03-03T08:16:41.052Z,95.65
2016-03-03T08:17:35.212Z,95.79
2016-03-03T08:18:47.573Z,95.84
2016-03-03T08:19:36.045Z,95.93
2016-03-03T08:20:54.032Z,96.26
2016-03-03T08:22:03.691Z,95.65
2016-03-03T08:22:47.662Z,95.45
2016-03-03T08:23:57.212Z,95.65
2016-03-03T08:25:22.904Z,95.36
2016-03-03T08:26:38.095Z,95.17
2016-03-03T08:27:50.942Z,96.12
2016-03-03T08:28:38.116Z,95.55
2016-03-03T08:30:03.806Z,95.93
2016-03-03T08:31:13.387Z,95.26
2016-03-03T08:31:47.717Z,95.65
2016-03-03T08:32:47.753Z,95.65
2016-03-03T08:33:47.801Z,95.26
2016-03-03T08:34:47.758Z,94.89
2016-03-03T08:35:47.838Z,95.36
2016-03-03T08:37:00.513Z,95.07
2016-03-03T08:37:54.078Z,94.98
2016-03-03T08:39:07.002Z,95.26
2016-03-03T08:40:00.583Z,95.45
2016-03-03T08:41:19.166Z,95.26
2016-03-03T08:42:07.479Z,95.45
2016-03-03T08:43:25.282Z,95.26
2016-03-03T08:44:09.188Z,95.55
2016-03-03T08:45:34.849Z,95.84
2016-03-03T08:46:44.430Z,95.55
2016-03-03T08:47:28.292Z,94.79
2016-03-03T08:48:54.029Z,95.17
2016-03-03T08:49:28.985Z,94.51
2016-03-03T08:50:28.346Z,94.51
2016-03-03T08:51:41.599Z,94.04
2016-03-03T08:52:28.462Z,94.23
2016-03-03T08:53:54.043Z,94.32
2016-03-03T08:54:41.139Z,94.51
2016-03-03T08:57:09.098Z,93.94
2016-03-03T08:57:56.365Z,93.46
2016-03-03T08:59:15.590Z,93.18
2016-03-03T08:59:56.387Z,92.9
2016-03-03T09:00:56.420Z,93.65
2016-03-03T09:01:56.409Z,93.65
2016-03-03T09:02:56.536Z,94.04
2016-03-03T09:04:06.100Z,93.94
2016-03-03T09:05:06.119Z,93.84
2016-03-03T09:06:06.122Z,94.42
2016-03-03T09:07:06.171Z,94.51
2016-03-03T09:08:12.439Z,94.6
2016-03-03T09:09:06.270Z,94.98
2016-03-03T09:10:25.401Z,94.79
2016-03-03T09:11:06.198Z,94.79
2016-03-03T09:12:31.890Z,94.04
2016-03-03T09:13:15.800Z,94.23
2016-03-03T09:16:31.041Z,93.94
2016-03-03T09:17:27.998Z,93.56
2016-03-03T09:19:43.191Z,93.51
2016-03-03T09:21:08.974Z,93.08
2016-03-03T09:21:47.259Z,92.99
2016-03-03T09:23:18.982Z,93.94
2016-03-03T09:24:02.857Z,93.65
2016-03-03T09:25:02.938Z,93.08
2016-03-03T09:27:49.384Z,92.76
2016-03-03T09:28:18.090Z,92.66
2016-03-03T09:29:18.123Z,91.52
2016-03-03T09:30:27.673Z,91.99
2016-03-03T09:31:58.989Z,92.18
2016-03-03T09:32:42.881Z,91.9
2016-03-03T09:33:42.884Z,91.99
2016-03-03T09:36:23.861Z,92.18
2016-03-03T09:36:58.174Z,91.14
2016-03-03T09:39:39.182Z,91.9
2016-03-03T09:40:13.510Z,91.19
2016-03-03T09:42:28.705Z,89.86
2016-03-03T09:46:15.842Z,88.91
2016-03-03T09:47:09.577Z,88.72
2016-03-03T09:48:09.844Z,89.29
2016-03-03T09:49:09.644Z,89.58
2016-03-03T09:50:09.646Z,88.72
2016-03-03T09:51:10.258Z,89
2016-03-03T09:52:35.342Z,88.81
2016-03-03T09:53:11.701Z,89.14
2016-03-03T09:54:41.223Z,88.72
2016-03-03T09:55:25.068Z,88.72
2016-03-03T09:56:25.181Z,88.43
2016-03-03T09:57:25.137Z,88.91
2016-03-03T09:58:45.765Z,88.43
2016-03-03T09:59:25.157Z,88.81
2016-03-03T10:00:56.535Z,88.06
2016-03-03T10:01:40.429Z,87.77
2016-03-03T10:02:40.431Z,86.91
2016-03-03T10:03:47.418Z,87.2
2016-03-03T10:04:40.468Z,87.39
2016-03-03T10:05:59.705Z,88.72
2016-03-03T10:06:53.833Z,89.29
2016-03-03T10:08:11.835Z,89.48
2016-03-03T10:08:50.072Z,89.25
2016-03-03T10:10:21.390Z,90.76
2016-03-03T10:11:05.249Z,90.67
2016-03-03T10:12:30.942Z,90.95
2016-03-03T10:14:11.805Z,90.95
2016-03-03T10:15:37.497Z,91.24
2016-03-03T10:16:21.437Z,92.18
2016-03-03T10:17:40.659Z,92.09
2016-03-03T10:18:34.177Z,92.38
2016-03-03T10:19:52.773Z,91.99
2016-03-03T10:20:37.573Z,91.9
2016-03-03T10:22:02.373Z,92.94
2016-03-03T10:22:46.860Z,93.94
2016-03-03T10:23:34.143Z,93.94
2016-03-03T10:24:49.318Z,93.94
2016-03-03T10:25:49.352Z,93.75
2016-03-03T10:28:00.373Z,94.79
2016-03-03T10:29:55.941Z,94.13
2016-03-03T10:30:09.941Z,94.6
2016-03-03T10:31:09.975Z,94.51
2016-03-03T10:32:10.212Z,94.32
2016-03-03T10:33:16.373Z,93.94
2016-03-03T10:34:16.298Z,93.94
2016-03-03T10:35:29.238Z,94.42
2016-03-03T10:36:25.897Z,93.46
2016-03-03T10:37:32.338Z,93.56
2016-03-03T10:38:47.512Z,93.7
2016-03-03T10:39:38.624Z,93.61
2016-03-03T10:40:57.064Z,92.76
2016-03-03T10:41:40.927Z,92.66
2016-03-03T10:42:41.054Z,92.09
2016-03-03T10:44:50.653Z,90.1
2016-03-03T10:45:50.671Z,90.29
2016-03-03T10:47:05.940Z,89.34
2016-03-03T10:48:05.990Z,89.29
2016-03-03T10:49:05.976Z,88.77
2016-03-03T10:50:18.654Z,88.62
2016-03-03T10:51:06.013Z,88.06
2016-03-03T10:52:25.159Z,87.58
2016-03-03T10:53:06.128Z,87.96
2016-03-03T10:54:25.274Z,87.2
2016-03-03T10:55:06.071Z,86.68
2016-03-03T10:56:31.873Z,85.16
2016-03-03T10:57:15.857Z,84.68
2016-03-03T10:58:19.034Z,83.97
2016-03-03T10:59:44.725Z,83.2
2016-03-03T11:00:25.353Z,83.2
2016-03-03T11:02:34.264Z,80.68
2016-03-03T11:03:34.283Z,80.3
2016-03-03T11:04:34.300Z,79.92
2016-03-03T11:05:34.303Z,80.11
2016-03-03T11:06:34.322Z,80.02
2016-03-03T11:07:47.106Z,80.3
2016-03-03T11:08:34.342Z,79.44
2016-03-03T11:09:53.580Z,80.26
2016-03-03T11:10:37.536Z,80.55
2016-03-03T11:11:37.554Z,81.49
2016-03-03T11:12:40.870Z,82.16
2016-03-03T11:13:40.817Z,82.26
2016-03-03T11:15:59.213Z,83.64
2016-03-03T11:16:59.135Z,84.11
2016-03-03T11:17:59.153Z,85.06
2016-03-03T11:18:59.156Z,84.78
2016-03-03T11:19:59.237Z,85.44
2016-03-03T11:21:24.882Z,84.97
2016-03-03T11:22:11.867Z,85.06
2016-03-03T11:23:27.998Z,85.16
2016-03-03T11:24:08.826Z,85.25
2016-03-03T11:25:34.488Z,84.97
2016-03-03T11:26:44.053Z,85.06
2016-03-03T11:27:28.023Z,85.53
2016-03-03T11:28:31.184Z,85.16
2016-03-03T11:29:46.404Z,85.16
2016-03-03T11:30:46.407Z,84.97
2016-03-03T11:31:46.441Z,85.16
2016-03-03T11:32:46.459Z,84.97
2016-03-03T11:33:52.743Z,84.97
2016-03-03T11:35:05.714Z,84.3
2016-03-03T11:35:46.498Z,84.4
2016-03-03T11:37:56.286Z,85.4
2016-03-03T11:40:05.744Z,86.91
2016-03-03T11:42:13.483Z,87.39
2016-03-03T11:44:07.442Z,87.49
2016-03-03T11:44:20.632Z,87.58
2016-03-03T11:46:36.419Z,86.82
2016-03-03T11:47:35.859Z,86.82
2016-03-03T11:48:48.627Z,86.16
2016-03-03T11:49:48.646Z,85.97
2016-03-03T11:50:35.913Z,85.4
2016-03-03T11:51:55.135Z,85.02
2016-03-03T11:53:07.248Z,84.68
2016-03-03T11:54:10.329Z,84.11
2016-03-03T11:55:13.409Z,83.83
2016-03-03T11:56:23.076Z,83.45
2016-03-03T11:59:05.318Z,82.16
2016-03-03T11:59:39.654Z,81.21
2016-03-03T12:01:05.338Z,80.16
2016-03-03T12:02:15.009Z,79.69
2016-03-03T12:02:49.398Z,79.03
2016-03-03T12:04:20.555Z,79.03
2016-03-03T12:05:05.883Z,78.69
2016-03-03T12:06:05.867Z,78.88
2016-03-03T12:07:05.869Z,77.83
2016-03-03T12:08:15.448Z,77.26
2016-03-03T12:10:12.436Z,77.92
2016-03-03T12:10:25.530Z,78.74
2016-03-03T12:11:25.518Z,78.83
2016-03-03T12:12:25.551Z,78.93
2016-03-03T12:13:25.570Z,79.22
2016-03-03T12:14:25.587Z,78.27
2016-03-03T12:15:25.606Z,78.21
2016-03-03T12:16:25.623Z,78.4
2016-03-03T12:17:38.375Z,77.92
2016-03-03T12:18:25.660Z,77.45
2016-03-03T12:19:44.879Z,75.87
2016-03-03T12:20:31.961Z,75.64
2016-03-03T12:21:51.385Z,77.07
2016-03-03T12:22:35.481Z,77.83
2016-03-03T12:23:54.703Z,78.08
2016-03-03T12:25:09.877Z,78.64
2016-03-03T12:26:19.430Z,79.12
2016-03-03T12:26:53.773Z,79.6
2016-03-03T12:29:08.966Z,80.98
2016-03-03T12:30:08.985Z,81.26
2016-03-03T12:31:09.003Z,82.12
2016-03-03T12:32:21.743Z,83.16
2016-03-03T12:33:15.914Z,82.78
2016-03-03T12:34:34.733Z,83.83
2016-03-03T12:35:16.749Z,83.97
2016-03-03T12:37:30.694Z,83.88
2016-03-03T12:38:24.462Z,84.07
2016-03-03T12:39:37.215Z,85.02
2016-03-03T12:40:34.733Z,84.55
2016-03-03T12:42:49.880Z,85.49
2016-03-03T12:43:49.898Z,85.78
2016-03-03T12:45:02.634Z,86.07
2016-03-03T12:45:50.544Z,85.78
2016-03-03T12:47:15.624Z,85.68
2016-03-03T12:48:02.548Z,85.49
2016-03-03T12:49:05.676Z,85.49
2016-03-03T12:50:31.338Z,84.74
2016-03-03T12:51:09.745Z,84.74
2016-03-03T12:52:40.937Z,84.74
2016-03-03T12:53:50.534Z,85.3
2016-03-03T12:54:24.848Z,85.87
2016-03-03T12:55:50.539Z,85.49
2016-03-03T12:56:34.433Z,85.3
2016-03-03T12:57:37.514Z,85.4
2016-03-03T12:59:03.203Z,85.68
2016-03-03T13:00:49.694Z,85.97
2016-03-03T13:01:40.680Z,86.07
2016-03-03T13:02:21.480Z,86.07
2016-03-03T13:03:36.888Z,86.91
2016-03-03T13:04:36.767Z,86.54
2016-03-03T13:05:55.644Z,87.63
2016-03-03T13:06:42.944Z,88.06
2016-03-03T13:11:30.832Z,88.96
2016-03-03T13:12:11.660Z,88.77
2016-03-03T13:13:37.415Z,88.87
2016-03-03T13:14:47.074Z,88.77
2016-03-03T13:15:30.952Z,88.87
2016-03-03T13:16:46.173Z,88.62
2016-03-03T13:17:46.176Z,88.34
2016-03-03T13:18:46.195Z,88.24
2016-03-03T13:19:46.229Z,87.96
2016-03-03T13:20:46.215Z,87.2
2016-03-03T13:21:58.984Z,86.44
2016-03-03T13:22:46.253Z,85.82
2016-03-03T13:24:11.942Z,83.92
2016-03-03T13:24:46.304Z,83.92
2016-03-03T13:26:17.604Z,83.16
2016-03-03T13:26:46.325Z,83.64
2016-03-03T13:29:01.534Z,83.26
2016-03-03T13:30:01.537Z,82.97
2016-03-03T13:31:01.556Z,82.92
2016-03-03T13:32:07.856Z,81.4
2016-03-03T13:33:14.326Z,81.87
2016-03-03T13:34:14.376Z,79.6
2016-03-03T13:37:01.837Z,78.5
2016-03-03T13:40:15.455Z,77.17
2016-03-03T13:41:15.504Z,77.36
2016-03-03T13:42:15.491Z,77.55
2016-03-03T13:43:30.767Z,76.88
2016-03-03T13:44:30.784Z,76.88
2016-03-03T13:45:30.802Z,77.26
2016-03-03T13:46:37.086Z,77.36
2016-03-03T13:47:30.855Z,78.25
2016-03-03T13:48:50.091Z,78.02
2016-03-03T13:49:37.126Z,77.55
2016-03-03T13:50:37.003Z,76.4
2016-03-03T13:51:37.037Z,77.92
2016-03-03T13:52:56.258Z,79.12
2016-03-03T13:53:37.683Z,79.22
2016-03-03T13:55:02.749Z,78.55
2016-03-03T13:55:46.642Z,79.03
2016-03-03T13:56:46.645Z,79.03
2016-03-03T13:58:17.976Z,79.41
2016-03-03T13:59:14.603Z,79.36
2016-03-03T14:00:14.715Z,80.03
2016-03-03T14:01:27.393Z,79.94
2016-03-03T14:02:20.908Z,80.41
2016-03-03T14:03:14.707Z,80.55
2016-03-03T14:04:14.710Z,79.97
2016-03-03T14:05:40.450Z,78.55
2016-03-03T14:06:27.422Z,78.17
2016-03-03T14:09:49.273Z,77.98
2016-03-03T14:10:49.292Z,78.17
2016-03-03T14:11:49.310Z,78.64
2016-03-03T14:12:49.407Z,79.22
2016-03-03T14:13:49.362Z,78.36
2016-03-03T14:14:50.006Z,78.08
2016-03-03T14:16:02.117Z,77.22
2016-03-03T14:16:49.448Z,77.51
2016-03-03T14:18:15.108Z,76.27
2016-03-03T14:19:24.845Z,75.6
2016-03-03T14:21:08.741Z,75.51
2016-03-03T14:22:08.744Z,74.94
2016-03-03T14:23:08.777Z,74.94
2016-03-03T14:24:21.530Z,75.79
2016-03-03T14:25:08.813Z,75.23
2016-03-03T14:26:34.538Z,76.27
2016-03-03T14:27:12.850Z,76.5
2016-03-03T14:28:12.900Z,76.46
2016-03-03T14:29:14.310Z,76.4
2016-03-03T14:30:12.890Z,75.26
2016-03-03T14:31:12.908Z,74.88
2016-03-03T14:32:12.910Z,75.36
2016-03-03T14:33:12.945Z,74.6
2016-03-03T14:34:13.010Z,72.7
2016-03-03T14:35:25.934Z,71.18
2016-03-03T14:36:12.999Z,70.32
2016-03-03T14:37:32.239Z,70.04
2016-03-03T14:38:13.020Z,69.79
2016-03-03T14:39:38.729Z,68.27
2016-03-03T14:40:22.792Z,68.07
2016-03-03T14:41:22.717Z,68.27
2016-03-03T14:43:22.737Z,67.69
2016-03-03T14:44:23.020Z,68.74
2016-03-03T14:45:41.230Z,67.79
2016-03-03T14:46:50.997Z,68.74
2016-03-03T14:47:38.235Z,69.02
2016-03-03T14:49:03.800Z,70.07
2016-03-03T14:49:38.272Z,70.93